Time;durP1;ratioP1;P1;durP2;ratioP2;P2;SDS_P1;SDS_P2;PMS_P1;PMS_P2;Temp;Humidity;BMP_temperature;BMP_pressure;BME280_temperature;BME280_humidity;BME280_pressure;Samples;Min_cycle;Max_cycle;Signal;HPM_P1;HPM_P2
2023/07/18 00:00:12;;;;;;;5.93;1.33;;;13.40;99.90;;;;;;4937054;29;20042;-82
2023/07/18 00:02:39;;;;;;;7.72;1.40;;;13.40;99.90;;;;;;4947453;28;20039;-82
2023/07/18 00:05:05;;;;;;;5.53;1.60;;;13.40;99.90;;;;;;4947361;29;20516;-82
2023/07/18 00:07:31;;;;;;;5.78;1.42;;;13.30;99.90;;;;;;4946980;29;20043;-82
2023/07/18 00:09:56;;;;;;;13.15;2.05;;;13.30;99.90;;;;;;4935489;29;20051;-82
2023/07/18 00:12:23;;;;;;;6.57;1.30;;;13.30;99.90;;;;;;4931249;29;20124;-82
2023/07/18 00:14:48;;;;;;;5.82;1.38;;;13.30;99.90;;;;;;4941832;29;20023;-82
2023/07/18 00:17:15;;;;;;;7.15;1.30;;;13.20;99.90;;;;;;4947233;29;20038;-82
2023/07/18 00:19:41;;;;;;;5.55;1.00;;;13.20;99.90;;;;;;4933335;29;20030;-82
2023/07/18 00:22:07;;;;;;;8.35;0.90;;;13.20;99.90;;;;;;4935560;29;20047;-82
2023/07/18 00:24:33;;;;;;;8.35;1.30;;;13.20;99.90;;;;;;4937570;29;20608;-82
2023/07/18 00:26:59;;;;;;;6.25;1.02;;;13.10;99.90;;;;;;4945319;29;20509;-82
2023/07/18 00:29:25;;;;;;;2.75;0.82;;;13.10;99.90;;;;;;4929059;29;20032;-83
2023/07/18 00:31:51;;;;;;;6.97;1.05;;;13.10;99.90;;;;;;4935302;29;20027;-83
2023/07/18 00:34:17;;;;;;;2.28;0.90;;;13.00;99.90;;;;;;4938419;29;20031;-82
2023/07/18 00:36:44;;;;;;;4.72;1.23;;;12.90;99.90;;;;;;4946862;29;20038;-82
2023/07/18 00:39:10;;;;;;;5.22;1.30;;;12.90;99.90;;;;;;4944405;29;20107;-82
2023/07/18 00:41:35;;;;;;;3.53;1.15;;;12.90;99.90;;;;;;4946520;29;20031;-82
2023/07/18 00:44:01;;;;;;;6.20;1.20;;;12.90;99.90;;;;;;4931208;29;20032;-82
2023/07/18 00:46:27;;;;;;;5.95;1.50;;;12.80;99.90;;;;;;4942350;29;20439;-82
2023/07/18 00:48:54;;;;;;;7.72;1.30;;;12.80;99.90;;;;;;4939328;28;20519;-82
2023/07/18 00:51:19;;;;;;;4.90;1.20;;;12.80;99.90;;;;;;4957315;28;20034;-82
2023/07/18 00:53:45;;;;;;;3.25;1.15;;;12.80;99.90;;;;;;4946621;28;20372;-82
2023/07/18 00:56:12;;;;;;;4.28;1.10;;;12.70;99.90;;;;;;4946663;29;20447;-82
2023/07/18 00:58:39;;;;;;;3.58;0.95;;;12.80;99.90;;;;;;4933976;29;20215;-81
2023/07/18 01:01:04;;;;;;;4.47;1.00;;;12.70;99.90;;;;;;4934920;29;20114;-81
2023/07/18 01:03:30;;;;;;;5.30;1.00;;;12.70;99.90;;;;;;4945309;29;20615;-81
2023/07/18 01:05:56;;;;;;;4.88;1.10;;;12.70;99.90;;;;;;4942227;29;20038;-82
2023/07/18 01:08:22;;;;;;;5.25;1.40;;;12.60;99.90;;;;;;4945647;29;20062;-82
2023/07/18 01:10:47;;;;;;;5.90;1.38;;;12.70;99.90;;;;;;4939954;29;20027;-82
2023/07/18 01:13:13;;;;;;;5.22;1.10;;;12.60;99.90;;;;;;4946198;29;20031;-82
2023/07/18 01:15:38;;;;;;;3.80;1.00;;;12.60;99.90;;;;;;4946517;29;20597;-82
2023/07/18 01:18:08;;;;;;;6.65;0.80;;;12.60;99.90;;;;;;4945655;29;20032;-82
2023/07/18 01:20:36;;;;;;;3.90;1.00;;;12.60;99.90;;;;;;4944758;29;20415;-82
2023/07/18 01:23:05;;;;;;;3.15;0.95;;;12.50;99.90;;;;;;4927356;29;20058;-81
2023/07/18 01:25:31;;;;;;;4.03;0.95;;;12.50;99.90;;;;;;4941972;29;20495;-81
2023/07/18 01:27:59;;;;;;;6.40;1.00;;;12.50;99.90;;;;;;4944626;29;20050;-82
2023/07/18 01:30:26;;;;;;;4.13;1.15;;;12.50;99.90;;;;;;4946047;29;20035;-82
2023/07/18 01:32:52;;;;;;;7.13;1.35;;;12.40;99.90;;;;;;4945286;29;20046;-82
2023/07/18 01:35:20;;;;;;;9.18;1.20;;;12.40;99.90;;;;;;4945452;29;20282;-82
2023/07/18 01:37:46;;;;;;;3.55;1.00;;;12.30;99.90;;;;;;4938345;29;20078;-81
2023/07/18 01:50:56;;;;;;;4.00;1.13;;;12.30;99.90;;;;;;6236646;22;1261568;-85
2023/07/18 01:53:21;;;;;;;3.75;0.80;;;12.10;99.90;;;;;;6266566;22;20004;-85
2023/07/18 01:55:47;;;;;;;3.17;1.25;;;12.00;99.90;;;;;;6240749;23;20012;-85
2023/07/18 01:58:13;;;;;;;7.60;1.20;;;12.00;99.90;;;;;;6239529;23;20099;-84
2023/07/18 02:00:38;;;;;;;5.95;1.20;;;11.90;99.90;;;;;;6239567;23;20451;-84
2023/07/18 02:03:05;;;;;;;4.32;1.10;;;11.90;99.90;;;;;;6239851;23;20008;-84
2023/07/18 02:05:32;;;;;;;5.95;1.30;;;11.90;99.90;;;;;;6239579;23;20022;-84
2023/07/18 02:07:57;;;;;;;3.83;1.23;;;11.80;99.90;;;;;;6240049;23;20440;-86
2023/07/18 02:10:24;;;;;;;6.32;1.58;;;11.80;99.90;;;;;;6240302;23;20095;-85
2023/07/18 02:12:51;;;;;;;4.22;1.63;;;11.80;99.90;;;;;;6240313;23;20012;-85
2023/07/18 02:15:18;;;;;;;5.20;1.45;;;11.80;99.90;;;;;;6239223;23;20008;-85
2023/07/18 02:17:44;;;;;;;3.22;1.20;;;11.80;99.90;;;;;;6239843;23;20027;-84
2023/07/18 02:20:11;;;;;;;6.22;1.60;;;11.70;99.90;;;;;;6238767;23;20187;-85
2023/07/18 02:22:40;;;;;;;4.70;1.45;;;11.70;99.90;;;;;;6241539;23;20007;-85
2023/07/18 02:25:06;;;;;;;5.35;1.50;;;11.70;99.90;;;;;;6239040;23;20015;-85
2023/07/18 02:27:34;;;;;;;4.22;1.30;;;11.70;99.90;;;;;;6238960;23;20008;-86
2023/07/18 02:30:01;;;;;;;4.68;1.35;;;11.70;99.90;;;;;;6239490;23;20008;-85
2023/07/18 02:32:30;;;;;;;4.53;1.42;;;11.70;99.90;;;;;;6237132;23;20095;-85
2023/07/18 02:34:57;;;;;;;8.57;1.20;;;11.70;99.90;;;;;;6238749;23;20300;-85
2023/07/18 02:37:26;;;;;;;5.15;1.45;;;11.70;99.90;;;;;;6240625;23;20008;-84
2023/07/18 02:39:52;;;;;;;4.78;1.45;;;11.70;99.90;;;;;;6240360;23;20016;-84
2023/07/18 02:42:18;;;;;;;3.40;1.30;;;11.70;99.90;;;;;;6240152;23;20074;-85
2023/07/18 02:44:47;;;;;;;5.90;1.20;;;11.70;99.90;;;;;;6241818;23;20010;-85
2023/07/18 02:47:13;;;;;;;7.40;1.15;;;11.80;99.90;;;;;;6239912;23;20007;-85
2023/07/18 02:49:39;;;;;;;4.35;1.42;;;11.80;99.90;;;;;;6239766;22;20146;-85
2023/07/18 02:52:05;;;;;;;5.60;1.30;;;11.80;99.90;;;;;;6233471;23;20016;-85
2023/07/18 02:54:31;;;;;;;3.42;1.17;;;11.70;99.90;;;;;;6234185;23;20054;-85
2023/07/18 02:56:58;;;;;;;4.32;0.98;;;11.70;99.90;;;;;;6234473;23;20004;-85
2023/07/18 02:59:24;;;;;;;5.47;1.38;;;11.70;99.90;;;;;;6234178;23;20103;-85
2023/07/18 03:01:50;;;;;;;4.05;1.00;;;11.70;99.90;;;;;;6235465;23;20075;-85
2023/07/18 03:04:17;;;;;;;3.97;1.20;;;11.60;99.90;;;;;;6236627;23;20478;-86
2023/07/18 03:06:45;;;;;;;4.53;1.27;;;11.60;99.90;;;;;;6234504;23;20020;-85
2023/07/18 03:09:10;;;;;;;6.47;1.05;;;11.60;99.90;;;;;;6235284;23;20024;-85
2023/07/18 03:11:36;;;;;;;4.38;1.20;;;11.50;99.90;;;;;;6234846;23;20019;-85
2023/07/18 03:14:01;;;;;;;4.88;1.20;;;11.40;99.90;;;;;;6234527;23;20591;-85
2023/07/18 03:16:27;;;;;;;3.22;1.17;;;11.30;99.90;;;;;;6232049;23;20087;-85
2023/07/18 03:18:54;;;;;;;6.25;1.40;;;11.30;99.90;;;;;;6235684;23;20012;-85
2023/07/18 03:21:20;;;;;;;5.90;1.35;;;11.30;99.90;;;;;;6235948;23;20015;-85
2023/07/18 03:23:45;;;;;;;4.55;0.90;;;11.20;99.90;;;;;;6233836;23;20011;-85
2023/07/18 03:26:11;;;;;;;4.05;1.13;;;11.30;99.90;;;;;;6233459;23;20454;-85
2023/07/18 03:28:37;;;;;;;3.50;0.90;;;11.20;99.90;;;;;;6235360;23;20385;-84
2023/07/18 03:31:02;;;;;;;5.95;1.33;;;11.30;99.90;;;;;;6236273;23;20432;-85
2023/07/18 03:33:28;;;;;;;4.68;1.20;;;11.20;99.90;;;;;;6236060;23;20000;-86
2023/07/18 03:35:54;;;;;;;3.60;1.40;;;11.20;99.90;;;;;;6234478;23;20471;-85
2023/07/18 03:38:20;;;;;;;2.53;0.95;;;11.10;99.90;;;;;;6233821;23;20360;-84
2023/07/18 03:40:47;;;;;;;3.08;0.90;;;11.10;99.90;;;;;;6234450;23;20440;-85
2023/07/18 03:43:13;;;;;;;6.28;1.35;;;11.10;99.90;;;;;;6235121;23;20004;-85
2023/07/18 03:45:38;;;;;;;4.13;1.20;;;11.00;99.90;;;;;;6235693;23;20103;-86
2023/07/18 03:48:04;;;;;;;6.60;0.95;;;11.00;99.90;;;;;;6233947;23;20975;-85
2023/07/18 03:50:30;;;;;;;3.90;0.80;;;10.90;99.90;;;;;;6235200;22;20032;-84
2023/07/18 03:52:55;;;;;;;5.82;1.13;;;10.90;99.90;;;;;;6235187;23;20008;-85
2023/07/18 03:55:21;;;;;;;3.70;1.10;;;10.90;99.90;;;;;;6233477;23;20004;-85
2023/07/18 03:57:46;;;;;;;1.95;1.00;;;10.80;99.90;;;;;;6235391;23;20004;-85
2023/07/18 04:00:13;;;;;;;4.65;1.35;;;10.80;99.90;;;;;;6234856;23;20012;-85
2023/07/18 04:02:42;;;;;;;5.35;1.48;;;10.80;99.90;;;;;;6232924;23;20316;-85
2023/07/18 04:05:08;;;;;;;3.35;0.93;;;10.80;99.90;;;;;;6234187;23;20008;-84
2023/07/18 04:07:34;;;;;;;2.47;0.80;;;10.80;99.90;;;;;;6232767;23;20014;-85
2023/07/18 04:09:59;;;;;;;3.20;1.00;;;10.80;99.90;;;;;;6232991;23;20120;-85
2023/07/18 04:12:25;;;;;;;4.97;1.10;;;10.80;99.90;;;;;;6234669;23;20012;-84
2023/07/18 04:14:51;;;;;;;3.05;0.90;;;10.80;99.90;;;;;;6232453;23;20011;-85
2023/07/18 04:17:17;;;;;;;2.13;0.93;;;10.70;99.90;;;;;;6232994;23;20015;-85
2023/07/18 04:19:42;;;;;;;1.83;0.88;;;10.70;99.90;;;;;;6234513;23;20008;-85
2023/07/18 04:22:08;;;;;;;2.35;1.10;;;10.70;99.90;;;;;;6232527;23;20014;-85
2023/07/18 04:24:34;;;;;;;2.28;1.00;;;10.70;99.90;;;;;;6233577;23;20383;-85
2023/07/18 04:26:59;;;;;;;2.78;0.95;;;10.70;99.90;;;;;;6234632;23;20336;-85
2023/07/18 04:29:25;;;;;;;5.20;1.48;;;10.70;99.90;;;;;;6233328;23;20012;-86
2023/07/18 04:31:51;;;;;;;4.40;1.10;;;10.70;99.90;;;;;;6233388;23;20012;-85
2023/07/18 04:34:17;;;;;;;3.70;1.15;;;10.70;99.90;;;;;;6233897;23;20000;-85
2023/07/18 04:36:43;;;;;;;4.85;1.50;;;10.70;99.90;;;;;;6234511;23;20008;-84
2023/07/18 04:39:09;;;;;;;6.88;1.80;;;10.70;99.90;;;;;;6231283;23;20075;-85
2023/07/18 04:41:35;;;;;;;5.07;1.50;;;10.80;99.90;;;;;;6233326;23;20087;-84
2023/07/18 04:44:01;;;;;;;6.15;1.63;;;10.70;99.90;;;;;;6234220;23;20344;-85
2023/07/18 04:46:27;;;;;;;6.40;1.52;;;10.80;99.90;;;;;;6233742;23;20000;-84
2023/07/18 04:48:53;;;;;;;5.38;1.70;;;10.80;99.90;;;;;;6233254;23;20023;-85
2023/07/18 04:51:18;;;;;;;6.68;1.60;;;10.80;99.90;;;;;;6232613;22;20309;-85
2023/07/18 04:53:44;;;;;;;6.28;1.60;;;10.90;99.90;;;;;;6232983;23;20091;-85
2023/07/18 04:56:09;;;;;;;4.82;1.40;;;10.90;99.90;;;;;;6231475;23;20321;-85
2023/07/18 04:58:35;;;;;;;4.90;1.77;;;10.90;99.90;;;;;;6233246;23;20106;-85
2023/07/18 05:01:02;;;;;;;6.05;1.55;;;11.00;99.90;;;;;;6230099;23;20765;-85
2023/07/18 05:03:28;;;;;;;3.53;1.48;;;11.00;99.90;;;;;;6231161;23;20004;-84
2023/07/18 05:05:56;;;;;;;1.95;1.33;;;11.10;99.90;;;;;;6233458;23;20039;-84
2023/07/18 05:08:21;;;;;;;3.45;1.50;;;11.20;99.90;;;;;;6231363;23;20011;-84
2023/07/18 05:10:47;;;;;;;5.03;1.88;;;11.20;99.90;;;;;;6230680;23;20012;-86
2023/07/18 05:13:13;;;;;;;4.10;1.60;;;11.30;99.90;;;;;;6233239;23;20027;-85
2023/07/18 05:15:41;;;;;;;7.43;1.70;;;11.40;99.90;;;;;;6232050;23;20464;-85
2023/07/18 05:18:07;;;;;;;5.70;2.60;;;11.60;99.90;;;;;;6231901;23;20086;-85
2023/07/18 05:20:33;;;;;;;2.80;1.42;;;11.70;99.90;;;;;;6233516;23;20479;-85
2023/07/18 05:22:59;;;;;;;4.45;1.60;;;11.80;99.90;;;;;;6231407;23;20069;-83
2023/07/18 05:25:25;;;;;;;4.95;1.80;;;11.90;99.90;;;;;;6231632;23;20008;-85
2023/07/18 05:27:51;;;;;;;3.42;2.10;;;12.00;99.90;;;;;;6233735;23;20187;-85
2023/07/18 05:30:19;;;;;;;2.97;1.92;;;12.10;99.90;;;;;;6230672;23;20384;-86
2023/07/18 05:32:46;;;;;;;3.65;1.90;;;12.10;99.90;;;;;;6233444;23;20012;-85
2023/07/18 05:35:15;;;;;;;3.53;1.65;;;12.20;99.90;;;;;;6233445;23;20000;-85
2023/07/18 05:37:42;;;;;;;3.08;1.70;;;12.40;99.90;;;;;;6234840;23;20438;-85
2023/07/18 05:40:11;;;;;;;4.15;1.33;;;12.50;99.90;;;;;;6232534;23;20645;-86
2023/07/18 05:42:38;;;;;;;4.65;1.65;;;12.60;99.90;;;;;;6233874;23;20004;-85
2023/07/18 05:45:05;;;;;;;3.28;1.30;;;12.80;99.90;;;;;;6233986;23;20744;-85
2023/07/18 05:47:31;;;;;;;4.65;1.50;;;13.00;99.90;;;;;;6231141;23;20047;-85
2023/07/18 05:49:56;;;;;;;2.78;1.20;;;13.10;99.90;;;;;;6232139;23;20008;-85
2023/07/18 05:52:22;;;;;;;2.92;1.20;;;13.30;99.90;;;;;;6233139;23;20012;-85
2023/07/18 05:54:48;;;;;;;5.47;1.50;;;13.50;99.90;;;;;;6231688;23;20004;-85
2023/07/18 05:57:14;;;;;;;2.75;1.20;;;13.70;99.90;;;;;;6231644;23;20008;-85
2023/07/18 05:59:40;;;;;;;2.58;1.10;;;13.90;99.90;;;;;;6230853;23;20352;-85
2023/07/18 06:02:06;;;;;;;3.13;1.00;;;14.10;99.90;;;;;;6233520;23;20008;-85
2023/07/18 06:04:31;;;;;;;1.92;1.00;;;14.20;99.90;;;;;;6232529;23;20024;-86
2023/07/18 06:06:57;;;;;;;2.67;1.20;;;14.30;99.90;;;;;;6233627;23;20031;-86
2023/07/18 06:09:23;;;;;;;3.83;1.25;;;14.40;99.90;;;;;;6231768;23;20031;-85
2023/07/18 06:11:48;;;;;;;2.25;0.93;;;14.40;99.90;;;;;;6233353;23;20000;-85
2023/07/18 06:14:14;;;;;;;2.60;1.10;;;14.50;99.90;;;;;;6234027;23;20023;-85
2023/07/18 06:16:39;;;;;;;2.22;1.40;;;14.60;99.90;;;;;;6234188;23;20004;-85
2023/07/18 06:19:05;;;;;;;5.38;1.40;;;14.60;99.90;;;;;;6231572;23;20016;-85
2023/07/18 06:21:30;;;;;;;1.90;1.40;;;14.70;99.90;;;;;;6232599;23;20102;-85
2023/07/18 06:23:57;;;;;;;5.53;1.88;;;15.00;99.90;;;;;;6231101;23;20016;-85
2023/07/18 06:26:23;;;;;;;12.63;6.43;;;15.10;99.90;;;;;;6235497;23;20000;-86
2023/07/18 06:28:49;;;;;;;12.95;7.68;;;15.30;99.90;;;;;;6233678;23;20050;-85
2023/07/18 06:31:15;;;;;;;4.18;2.40;;;15.40;99.90;;;;;;6233407;23;20015;-85
2023/07/18 06:33:41;;;;;;;2.15;1.13;;;15.60;99.90;;;;;;6233176;23;20004;-85
2023/07/18 06:36:08;;;;;;;2.85;1.10;;;15.70;99.90;;;;;;6233500;23;20011;-86
2023/07/18 06:38:33;;;;;;;1.60;0.85;;;15.90;99.90;;;;;;6234710;23;20460;-86
2023/07/18 06:40:59;;;;;;;4.00;0.90;;;16.10;99.90;;;;;;6235708;23;20012;-86
2023/07/18 06:43:27;;;;;;;2.38;0.90;;;16.20;99.90;;;;;;6233109;23;20376;-86
2023/07/18 06:45:53;;;;;;;3.53;1.17;;;16.30;99.90;;;;;;6235924;23;20018;-85
2023/07/18 06:48:18;;;;;;;2.65;0.90;;;16.40;99.90;;;;;;6234552;23;20075;-86
2023/07/18 06:50:53;;;;;;;2.40;0.98;;;16.60;99.90;;;;;;6232767;23;20496;-83
2023/07/18 06:53:20;;;;;;;3.92;0.90;;;16.80;99.90;;;;;;6235339;23;20015;-85
2023/07/18 06:55:49;;;;;;;3.28;1.38;;;17.00;99.90;;;;;;6233367;23;20475;-86
2023/07/18 06:58:19;;;;;;;2.40;0.90;;;17.00;99.90;;;;;;6227328;23;20015;-84
2023/07/18 07:00:46;;;;;;;3.08;1.30;;;17.30;99.90;;;;;;6228983;23;20027;-85
2023/07/18 07:03:12;;;;;;;3.05;1.25;;;17.30;99.90;;;;;;6230240;23;20011;-86
2023/07/18 07:05:39;;;;;;;4.57;1.05;;;17.30;99.90;;;;;;6233499;23;20008;-84
2023/07/18 07:08:08;;;;;;;3.78;1.00;;;17.30;99.90;;;;;;6232806;23;20036;-85
2023/07/18 07:10:41;;;;;;;5.82;2.65;;;17.60;99.90;;;;;;6233352;23;20400;-86
2023/07/18 07:13:07;;;;;;;5.68;2.60;;;17.90;99.90;;;;;;6233506;23;20490;-85
2023/07/18 07:15:34;;;;;;;4.13;1.50;;;18.20;99.90;;;;;;6234880;23;20436;-84
2023/07/18 07:18:00;;;;;;;2.45;0.88;;;18.40;99.90;;;;;;6234517;23;20777;-86
2023/07/18 07:20:26;;;;;;;2.78;0.80;;;18.70;99.90;;;;;;6232622;23;20015;-85
2023/07/18 07:22:53;;;;;;;2.35;0.90;;;18.80;99.90;;;;;;6231113;23;20008;-86
2023/07/18 07:25:22;;;;;;;4.68;1.00;;;19.00;99.90;;;;;;6229332;23;20109;-85
2023/07/18 07:27:48;;;;;;;1.90;0.65;;;19.20;99.90;;;;;;6230279;23;20024;-86
2023/07/18 07:30:17;;;;;;;2.95;1.10;;;19.10;99.90;;;;;;6228613;23;20019;-85
2023/07/18 07:32:44;;;;;;;2.90;0.98;;;19.40;99.90;;;;;;6226709;23;20008;-86
2023/07/18 07:35:10;;;;;;;3.45;0.77;;;19.70;99.90;;;;;;6229145;23;20340;-85
2023/07/18 07:37:36;;;;;;;3.17;0.80;;;20.10;99.90;;;;;;6228582;23;20317;-85
2023/07/18 07:40:06;;;;;;;3.33;0.80;;;20.60;99.90;;;;;;6229141;23;20020;-85
2023/07/18 07:42:32;;;;;;;6.05;0.80;;;21.10;99.90;;;;;;6231809;23;20010;-85
2023/07/18 07:44:58;;;;;;;2.58;0.60;;;21.70;99.90;;;;;;6232558;23;20432;-85
2023/07/18 07:47:23;;;;;;;3.13;0.68;;;22.60;99.90;;;;;;6231617;23;20373;-86
2023/07/18 07:49:49;;;;;;;2.55;0.70;;;23.90;99.90;;;;;;6234056;22;20090;-85
2023/07/18 07:52:14;;;;;;;1.55;0.47;;;25.80;98.60;;;;;;6233922;23;20349;-85
2023/07/18 07:54:40;;;;;;;2.85;0.70;;;27.60;89.80;;;;;;6233911;23;20068;-86
2023/07/18 07:57:06;;;;;;;2.33;0.90;;;29.70;77.60;;;;;;6233258;23;20004;-85
2023/07/18 07:59:32;;;;;;;1.35;0.40;;;31.40;67.30;;;;;;6231826;23;20042;-86
2023/07/18 08:01:57;;;;;;;2.40;0.60;;;33.00;59.50;;;;;;6233301;23;20040;-87
2023/07/18 08:04:23;;;;;;;5.60;1.10;;;34.10;54.20;;;;;;6233843;23;20011;-86
2023/07/18 08:06:48;;;;;;;5.05;1.05;;;35.20;52.50;;;;;;6234261;23;20004;-86
2023/07/18 08:09:15;;;;;;;3.92;1.30;;;36.20;49.50;;;;;;6231983;23;20008;-86
2023/07/18 08:11:40;;;;;;;5.70;1.30;;;36.70;45.80;;;;;;6230771;23;20004;-85
2023/07/18 08:14:07;;;;;;;6.10;1.70;;;37.20;45.70;;;;;;6227613;23;20051;-86
2023/07/18 08:16:33;;;;;;;3.95;1.63;;;38.20;42.70;;;;;;6227318;23;20012;-85
2023/07/18 08:18:58;;;;;;;7.32;1.98;;;38.70;42.70;;;;;;6227622;23;20941;-87
2023/07/18 08:21:24;;;;;;;6.05;1.95;;;39.20;40.90;;;;;;6228051;23;20012;-86
2023/07/18 08:23:50;;;;;;;6.22;2.13;;;39.70;39.80;;;;;;6225050;23;20329;-85
2023/07/18 08:26:16;;;;;;;4.35;1.67;;;39.70;40.30;;;;;;6229985;23;20015;-86
2023/07/18 08:28:41;;;;;;;7.50;2.00;;;39.50;38.10;;;;;;6229094;23;20019;-86
2023/07/18 08:31:07;;;;;;;4.13;1.30;;;39.20;38.80;;;;;;6229860;23;20040;-86
2023/07/18 08:33:32;;;;;;;3.53;1.20;;;39.40;40.80;;;;;;6229156;23;20130;-86
2023/07/18 08:35:58;;;;;;;6.30;1.92;;;38.80;37.40;;;;;;6232501;23;19999;-86
2023/07/18 08:38:24;;;;;;;4.60;1.40;;;38.80;38.60;;;;;;6231455;23;20027;-87
2023/07/18 08:40:50;;;;;;;5.22;1.40;;;38.70;40.30;;;;;;6229864;23;20012;-86
2023/07/18 08:45:51;;;;;;;4.63;0.93;;;40.00;37.50;;;;;;6204086;22;20236;-81
2023/07/18 08:48:17;;;;;;;4.63;1.10;;;40.80;38.20;;;;;;6212408;23;20497;-80
2023/07/18 08:50:43;;;;;;;5.70;1.10;;;41.30;34.80;;;;;;6219616;22;20036;-80
2023/07/18 08:53:09;;;;;;;4.50;0.95;;;39.30;35.30;;;;;;6221426;22;20039;-81
2023/07/18 08:55:36;;;;;;;4.10;0.80;;;37.30;38.60;;;;;;6219995;22;20004;-80
2023/07/18 08:58:02;;;;;;;7.22;1.00;;;37.10;37.90;;;;;;6222490;23;20336;-81
2023/07/18 09:00:28;;;;;;;5.55;0.90;;;38.50;37.30;;;;;;6222448;22;20091;-80
2023/07/18 09:02:54;;;;;;;3.83;0.63;;;40.10;35.20;;;;;;6220804;22;20088;-81
2023/07/18 09:05:37;;;;;;;4.40;0.90;;;41.30;36.50;;;;;;6221493;22;20018;-80
2023/07/18 09:08:04;;;;;;;4.75;0.77;;;40.80;35.10;;;;;;6221065;22;20380;-81
2023/07/18 09:10:31;;;;;;;8.05;1.10;;;41.00;33.30;;;;;;6221506;22;20070;-80
2023/07/18 09:13:04;;;;;;;3.15;0.88;;;42.20;35.50;;;;;;6222738;22;20018;-79
2023/07/18 09:15:33;;;;;;;4.57;0.75;;;42.60;32.90;;;;;;6224021;22;20008;-80
2023/07/18 09:18:02;;;;;;;2.40;0.60;;;42.70;31.90;;;;;;6222308;22;20035;-80
2023/07/18 09:20:32;;;;;;;3.17;0.68;;;42.30;32.50;;;;;;6227036;22;20023;-82
2023/07/18 09:23:00;;;;;;;4.00;1.00;;;41.70;32.00;;;;;;6224130;22;20008;-80
2023/07/18 09:25:26;;;;;;;5.05;0.98;;;41.20;31.70;;;;;;6224853;22;20012;-79
2023/07/18 09:27:54;;;;;;;3.00;0.70;;;41.90;33.00;;;;;;6221251;22;20485;-83
2023/07/18 09:30:23;;;;;;;6.18;0.60;;;41.60;33.50;;;;;;6219048;22;20011;-84
2023/07/18 09:32:52;;;;;;;3.30;0.70;;;41.70;34.40;;;;;;6220624;22;20054;-83
2023/07/18 09:35:18;;;;;;;5.10;0.80;;;41.90;32.70;;;;;;6218258;22;20502;-84
2023/07/18 09:37:46;;;;;;;5.82;0.70;;;41.40;32.30;;;;;;6224094;22;20004;-83
2023/07/18 09:40:14;;;;;;;4.32;0.60;;;40.70;32.00;;;;;;6223706;22;20119;-84
2023/07/18 09:42:45;;;;;;;2.83;0.70;;;41.60;34.80;;;;;;6226258;22;20027;-84
2023/07/18 09:45:13;;;;;;;3.65;1.00;;;42.00;31.20;;;;;;6226297;22;20108;-83
2023/07/18 09:47:41;;;;;;;4.07;0.95;;;40.40;33.60;;;;;;6231548;22;20285;-83
2023/07/18 09:50:08;;;;;;;3.92;1.00;;;40.30;32.80;;;;;;6231629;22;20112;-84
2023/07/18 09:52:39;;;;;;;2.47;0.70;;;40.50;33.60;;;;;;6231250;22;20313;-84
2023/07/18 09:55:07;;;;;;;5.03;1.02;;;41.20;33.00;;;;;;6232736;22;20004;-85
2023/07/18 09:57:42;;;;;;;7.03;0.90;;;40.10;32.30;;;;;;6230578;22;20008;-84
2023/07/18 10:00:12;;;;;;;3.97;0.77;;;39.10;34.80;;;;;;6229879;22;20012;-82
2023/07/18 10:02:41;;;;;;;3.35;0.63;;;38.10;35.60;;;;;;6233836;22;20079;-84
2023/07/18 10:05:09;;;;;;;4.55;0.80;;;38.50;36.60;;;;;;6230158;22;20716;-83
2023/07/18 10:07:39;;;;;;;3.55;0.70;;;39.40;36.70;;;;;;6233318;22;20027;-83
2023/07/18 10:10:08;;;;;;;5.33;1.20;;;40.60;33.50;;;;;;6229187;22;20000;-82
2023/07/18 10:12:56;;;;;;;2.55;0.80;;;41.90;34.70;;;;;;6230091;22;20000;-84
2023/07/18 10:15:23;;;;;;;5.32;0.80;;;42.20;29.90;;;;;;6228255;23;20556;-84
2023/07/18 10:17:49;;;;;;;3.03;0.90;;;42.10;33.10;;;;;;6230214;22;20454;-84
2023/07/18 10:20:22;;;;;;;4.93;0.80;;;43.00;32.60;;;;;;6228434;22;20042;-83
2023/07/18 10:22:58;;;;;;;3.42;1.05;;;43.60;32.10;;;;;;6230035;22;20336;-84
2023/07/18 10:25:29;;;;;;;4.70;0.80;;;43.80;31.00;;;;;;6229381;22;20412;-84
2023/07/18 10:27:56;;;;;;;3.08;0.85;;;44.00;29.70;;;;;;6228378;22;20520;-83
2023/07/18 10:30:22;;;;;;;5.15;0.90;;;44.00;28.80;;;;;;6229948;22;20062;-83
2023/07/18 10:32:58;;;;;;;2.97;0.73;;;44.00;28.60;;;;;;6229397;22;20012;-82
2023/07/18 10:35:25;;;;;;;3.88;0.98;;;42.80;28.70;;;;;;6231778;22;20006;-84
2023/07/18 10:37:56;;;;;;;3.58;0.63;;;42.70;29.30;;;;;;6230542;22;20390;-83
2023/07/18 10:40:38;;;;;;;3.78;0.77;;;43.50;29.90;;;;;;6227336;23;20026;-84
2023/07/18 10:43:24;;;;;;;6.20;0.55;;;42.30;29.90;;;;;;6227939;23;20131;-81
2023/07/18 10:45:50;;;;;;;3.28;0.70;;;41.40;30.60;;;;;;6228252;22;20046;-85
2023/07/18 10:48:19;;;;;;;2.65;0.47;;;41.90;29.90;;;;;;6228565;22;20004;-83
2023/07/18 10:50:47;;;;;;;2.63;0.73;;;42.80;30.00;;;;;;6233324;22;20004;-82
2023/07/18 10:53:14;;;;;;;2.72;0.50;;;42.00;31.20;;;;;;6233080;22;20171;-83
2023/07/18 10:55:40;;;;;;;2.75;0.70;;;41.40;29.90;;;;;;6231591;22;20020;-83
2023/07/18 10:58:24;;;;;;;3.15;0.70;;;40.00;31.10;;;;;;6232936;22;20007;-83
2023/07/18 11:00:50;;;;;;;4.95;0.80;;;39.80;31.60;;;;;;6229068;22;20515;-82
2023/07/18 11:03:21;;;;;;;3.17;0.65;;;40.50;30.60;;;;;;6232177;22;20035;-84
2023/07/18 11:05:51;;;;;;;2.60;0.60;;;41.40;30.00;;;;;;6233113;22;20008;-83
2023/07/18 11:08:25;;;;;;;;;;;42.60;32.00;;;;;;6233419;22;20007;-83
2023/07/18 11:10:58;;;;;;;1.17;0.40;;;42.80;28.30;;;;;;6232903;23;19907;-84
2023/07/18 11:13:32;;;;;;;1.27;0.43;;;42.50;28.80;;;;;;6233105;22;20004;-84
2023/07/18 11:16:02;;;;;;;5.97;0.73;;;40.20;30.20;;;;;;6232028;22;20087;-83
2023/07/18 11:18:34;;;;;;;2.83;0.47;;;37.00;32.30;;;;;;6235870;22;20004;-84
2023/07/18 11:21:05;;;;;;;3.97;0.63;;;35.70;33.30;;;;;;6233619;22;20083;-83
2023/07/18 11:23:31;;;;;;;;;;;34.60;35.10;;;;;;6233864;22;20054;-83
2023/07/18 11:25:56;;;;;;;2.33;0.50;;;34.60;35.70;;;;;;6233538;23;19903;-84
2023/07/18 11:28:28;;;;;;;3.45;0.63;;;33.70;35.70;;;;;;6232682;22;20008;-84
2023/07/18 11:30:53;;;;;;;2.92;0.50;;;34.10;35.10;;;;;;6233162;22;20003;-84
2023/07/18 11:33:19;;;;;;;2.08;0.60;;;34.90;37.20;;;;;;6230583;23;20082;-83
2023/07/18 11:35:48;;;;;;;2.65;0.77;;;34.90;34.30;;;;;;6232936;22;20462;-83
2023/07/18 11:38:17;;;;;;;2.58;0.50;;;34.00;36.20;;;;;;6229364;22;20000;-84
2023/07/18 11:40:43;;;;;;;2.77;0.50;;;33.80;37.60;;;;;;6230869;22;20012;-84
2023/07/18 11:43:17;;;;;;;3.58;0.90;;;33.30;38.80;;;;;;6231867;22;20506;-84
2023/07/18 11:45:43;;;;;;;4.50;0.85;;;32.70;38.80;;;;;;6231625;22;20016;-82
2023/07/18 11:48:09;;;;;;;2.05;0.57;;;32.30;38.10;;;;;;6231268;22;20475;-85
2023/07/18 11:50:35;;;;;;;2.58;0.60;;;31.50;38.40;;;;;;6231696;22;20004;-83
2023/07/18 11:53:03;;;;;;;3.00;0.63;;;30.80;40.50;;;;;;6225995;23;20012;-85
2023/07/18 11:55:30;;;;;;;4.93;0.63;;;30.00;40.20;;;;;;6229497;22;20011;-82
2023/07/18 11:57:56;;;;;;;3.13;0.60;;;29.00;42.50;;;;;;6230622;22;20436;-82
2023/07/18 12:00:22;;;;;;;4.57;0.70;;;28.70;46.60;;;;;;6230907;22;20020;-84
2023/07/18 12:02:48;;;;;;;4.07;0.65;;;28.80;44.70;;;;;;6228851;22;20035;-85
2023/07/18 12:05:14;;;;;;;3.20;0.63;;;28.60;44.20;;;;;;6224086;23;20280;-84
2023/07/18 12:07:41;;;;;;;4.07;0.70;;;28.50;44.60;;;;;;6228171;22;20234;-84
2023/07/18 12:10:08;;;;;;;3.85;0.50;;;29.10;42.60;;;;;;6225982;23;20086;-80
2023/07/18 12:12:34;;;;;;;4.13;0.77;;;29.50;43.10;;;;;;6229039;23;20030;-85
2023/07/18 12:15:01;;;;;;;2.15;0.50;;;28.90;46.90;;;;;;6228719;22;20015;-85
2023/07/18 12:17:26;;;;;;;2.60;0.63;;;28.70;42.90;;;;;;6232081;22;20070;-85
2023/07/18 12:19:52;;;;;;;2.60;0.47;;;28.90;45.00;;;;;;6231943;22;20439;-85
2023/07/18 12:22:18;;;;;;;2.88;0.60;;;28.70;42.00;;;;;;6230533;23;20447;-85
2023/07/18 12:24:44;;;;;;;3.10;0.70;;;28.60;46.40;;;;;;6229646;23;20381;-85
2023/07/18 12:27:10;;;;;;;2.95;0.52;;;28.40;41.70;;;;;;6232953;22;20019;-84
2023/07/18 12:29:36;;;;;;;2.10;0.60;;;28.10;43.50;;;;;;6232772;22;20000;-86
2023/07/18 12:32:03;;;;;;;2.60;0.50;;;28.30;42.60;;;;;;6232585;22;20000;-84
2023/07/18 12:34:28;;;;;;;8.00;0.80;;;29.00;46.10;;;;;;6232309;23;20344;-85
2023/07/18 12:36:54;;;;;;;4.15;0.82;;;29.10;41.30;;;;;;6227292;23;20000;-83
2023/07/18 12:39:20;;;;;;;3.80;0.70;;;29.40;46.80;;;;;;6225467;23;20430;-84
2023/07/18 12:41:45;;;;;;;1.42;0.40;;;30.30;42.80;;;;;;6228945;22;20014;-84
2023/07/18 12:44:20;;;;;;;3.15;0.47;;;30.80;39.50;;;;;;6229467;22;20019;-86
2023/07/18 12:46:49;;;;;;;3.30;0.57;;;30.80;43.60;;;;;;6227267;22;20340;-86
2023/07/18 12:49:14;;;;;;;0.98;0.30;;;30.60;42.50;;;;;;6227518;22;20061;-85
2023/07/18 12:51:41;;;;;;;1.73;0.70;;;29.70;39.50;;;;;;6229357;22;20004;-85
2023/07/18 12:54:07;;;;;;;2.38;0.50;;;29.70;41.70;;;;;;6228172;22;20156;-86
2023/07/18 12:56:33;;;;;;;1.83;0.45;;;29.20;41.80;;;;;;6230030;22;20794;-86
2023/07/18 12:58:59;;;;;;;4.05;0.68;;;29.00;42.80;;;;;;6230965;23;20159;-86